createdAt,value
2022-08-21T18:48:09.680Z,6.57
2022-08-21T18:50:47.905Z,6.82
2022-08-21T18:53:27.627Z,8.38
2022-08-21T18:56:15.477Z,5.72
2022-08-21T18:58:49.674Z,7.03
2022-08-21T19:01:23.105Z,7.90
2022-08-21T19:03:57.705Z,10.15
2022-08-21T19:06:30.582Z,12.27
2022-08-21T19:09:09.653Z,17.33
2022-08-21T19:11:43.140Z,15.68
2022-08-21T19:14:17.977Z,13.77
2022-08-21T19:16:51.217Z,16.25
2022-08-21T19:19:23.938Z,13.77
2022-08-21T19:21:56.850Z,14.43
2022-08-21T19:24:29.696Z,10.40
2022-08-21T19:27:07.749Z,14.10
2022-08-21T19:29:44.287Z,11.38
2022-08-21T19:32:20.075Z,9.65
2022-08-21T19:34:55.254Z,7.60
2022-08-21T19:37:31.919Z,3.10
2022-08-21T19:40:09.428Z,3.05
2022-08-21T19:42:43.240Z,5.53
2022-08-21T19:45:15.854Z,4.57
2022-08-21T19:47:51.098Z,3.75
2022-08-21T19:50:25.707Z,5.28
2022-08-21T19:53:03.780Z,4.07
2022-08-21T19:55:36.830Z,4.47
2022-08-21T19:58:39.311Z,3.05
2022-08-21T20:01:16.725Z,4.00
2022-08-21T20:03:54.259Z,6.05
2022-08-21T20:06:27.601Z,3.60
2022-08-21T20:09:00.315Z,3.05
2022-08-21T20:11:42.056Z,4.30
2022-08-21T20:20:35.731Z,4.18
2022-08-21T20:23:11.737Z,4.53
2022-08-21T20:25:44.523Z,3.47
2022-08-21T20:28:19.865Z,4.22
2022-08-21T20:30:54.547Z,7.35
2022-08-21T20:33:27.815Z,3.88
2022-08-21T20:36:00.387Z,3.33
2022-08-21T20:38:33.330Z,2.80
2022-08-21T20:41:21.241Z,2.63
2022-08-21T20:44:05.560Z,3.15
2022-08-21T20:46:38.332Z,2.60
2022-08-21T20:49:17.557Z,3.00
2022-08-21T20:51:52.687Z,3.03
2022-08-21T20:54:34.722Z,3.25
2022-08-21T20:57:17.152Z,3.22
2022-08-21T21:00:18.188Z,2.65
2022-08-21T21:06:30.110Z,3.63
2022-08-21T21:09:17.178Z,2.95
2022-08-21T21:11:57.592Z,3.42
2022-08-21T21:14:48.742Z,3.90
2022-08-21T21:20:10.157Z,4.68
2022-08-21T21:22:50.970Z,6.32
2022-08-21T21:25:40.665Z,10.73
2022-08-21T21:30:57.466Z,6.57
2022-08-21T21:33:44.695Z,6.40
2022-08-21T21:36:18.125Z,7.78
2022-08-21T21:39:11.987Z,5.43
2022-08-21T21:41:59.128Z,7.93
2022-08-21T21:44:58.171Z,9.90
2022-08-21T21:48:03.710Z,6.63
2022-08-21T21:50:51.494Z,8.73
2022-08-21T21:53:56.056Z,8.25
2022-08-21T21:57:06.651Z,6.72
2022-08-21T22:02:26.095Z,4.55
2022-08-21T22:05:13.182Z,3.65
2022-08-21T22:08:01.890Z,2.33
2022-08-21T22:10:52.697Z,6.38
2022-08-21T22:13:54.975Z,3.35
2022-08-21T22:16:28.003Z,3.22
2022-08-21T22:19:07.638Z,3.42
2022-08-21T22:21:53.691Z,5.00
2022-08-21T22:24:32.116Z,6.43
2022-08-21T22:27:20.003Z,5.03
2022-08-21T22:29:59.350Z,8.90
2022-08-21T22:32:50.340Z,10.75
2022-08-21T22:35:26.074Z,8.63
2022-08-21T22:38:01.481Z,8.02
2022-08-21T22:40:36.414Z,11.82
2022-08-21T22:43:20.343Z,8.90
2022-08-21T22:46:05.782Z,8.68
2022-08-21T22:48:50.996Z,8.70
2022-08-21T22:51:44.418Z,5.32
2022-08-21T22:54:37.444Z,11.73
2022-08-21T22:57:26.487Z,12.13
2022-08-21T23:00:14.339Z,15.68
2022-08-21T23:02:52.237Z,10.55
2022-08-21T23:05:34.278Z,8.18
2022-08-21T23:08:32.994Z,3.38
2022-08-21T23:11:15.133Z,2.28
2022-08-21T23:13:51.878Z,2.38
2022-08-21T23:16:30.226Z,1.88
2022-08-21T23:19:24.870Z,2.15
2022-08-21T23:22:05.165Z,2.15
2022-08-21T23:24:49.759Z,2.80
2022-08-21T23:27:53.390Z,4.07
2022-08-21T23:30:41.206Z,5.45
2022-08-21T23:33:35.039Z,11.05
2022-08-21T23:36:32.731Z,12.20
2022-08-21T23:42:47.383Z,11.70
2022-08-21T23:45:35.026Z,8.93
2022-08-21T23:48:49.442Z,9.38
2022-08-21T23:51:41.292Z,3.75
2022-08-21T23:54:32.082Z,4.80
2022-08-21T23:57:31.441Z,5.22
